Time;durP1;ratioP1;P1;durP2;ratioP2;P2;SDS_P1;SDS_P2;PMS_P1;PMS_P2;Temp;Humidity;BMP_temperature;BMP_pressure;BME280_temperature;BME280_humidity;BME280_pressure;Samples;Min_cycle;Max_cycle;Signal;HPM_P1;HPM_P2
2021/07/03 00:00:54;;;;;;;8.48;5.57;;;17.80;99.90;;;;;;5073310;28;20691;-77
2021/07/03 00:03:21;;;;;;;7.03;5.13;;;17.90;99.90;;;;;;5074622;28;20203;-76
2021/07/03 00:05:47;;;;;;;7.28;5.28;;;17.90;99.90;;;;;;5075664;28;20231;-77
2021/07/03 00:08:14;;;;;;;8.35;5.50;;;17.90;99.90;;;;;;5076819;28;20226;-77
2021/07/03 00:10:42;;;;;;;7.43;4.95;;;17.90;99.90;;;;;;5075274;28;20301;-77
2021/07/03 00:13:09;;;;;;;5.68;4.45;;;17.80;99.90;;;;;;5076233;28;20199;-77
2021/07/03 00:15:36;;;;;;;7.43;4.82;;;17.80;99.90;;;;;;5075045;28;20230;-76
2021/07/03 00:18:03;;;;;;;5.93;4.72;;;17.70;99.90;;;;;;5074014;28;20262;-77
2021/07/03 00:20:30;;;;;;;6.63;4.30;;;17.70;99.90;;;;;;5074088;28;20226;-76
2021/07/03 00:22:57;;;;;;;7.38;4.60;;;17.60;99.90;;;;;;5075383;28;20283;-76
2021/07/03 00:25:24;;;;;;;7.53;4.85;;;17.50;99.90;;;;;;5079277;28;20215;-77
2021/07/03 00:27:52;;;;;;;5.70;4.35;;;17.50;99.90;;;;;;5079234;28;20223;-78
2021/07/03 00:30:19;;;;;;;7.22;4.72;;;17.50;99.90;;;;;;5083241;28;20295;-78
2021/07/03 00:32:46;;;;;;;6.43;4.40;;;17.40;99.90;;;;;;5082213;28;20264;-77
2021/07/03 00:35:13;;;;;;;8.18;4.75;;;17.20;99.90;;;;;;5074617;28;20628;-77
2021/07/03 00:37:40;;;;;;;6.20;4.40;;;17.00;99.90;;;;;;5074748;28;20305;-77
2021/07/03 00:40:08;;;;;;;6.88;3.95;;;17.00;99.90;;;;;;5073941;28;20297;-77
2021/07/03 00:42:35;;;;;;;6.72;4.13;;;17.00;99.90;;;;;;5073603;28;20297;-77
2021/07/03 00:45:05;;;;;;;6.85;4.35;;;17.10;99.90;;;;;;5073866;28;20206;-76
2021/07/03 00:47:31;;;;;;;5.50;4.18;;;17.20;99.90;;;;;;5074429;28;20229;-77
2021/07/03 00:49:58;;;;;;;7.97;4.90;;;17.20;99.90;;;;;;5077767;28;20291;-76
2021/07/03 00:52:25;;;;;;;6.03;4.38;;;17.20;99.90;;;;;;5074695;28;20567;-77
2021/07/03 00:54:52;;;;;;;7.55;5.30;;;17.20;99.90;;;;;;5073897;28;20233;-74
2021/07/03 00:57:19;;;;;;;7.05;4.35;;;17.20;99.90;;;;;;5073259;28;20229;-73
2021/07/03 00:59:48;;;;;;;5.95;4.40;;;17.20;99.90;;;;;;5073449;28;20676;-74
2021/07/03 01:02:18;;;;;;;7.32;4.63;;;17.20;99.90;;;;;;5073481;28;20226;-74
2021/07/03 01:04:46;;;;;;;9.52;4.40;;;17.20;99.90;;;;;;5073821;28;20207;-75
2021/07/03 01:07:13;;;;;;;7.00;4.78;;;17.20;99.90;;;;;;5073248;28;20254;-74
2021/07/03 01:09:40;;;;;;;7.35;4.10;;;17.20;99.90;;;;;;5073536;28;20199;-75
2021/07/03 01:12:08;;;;;;;6.57;4.82;;;17.10;99.90;;;;;;5072883;28;20210;-74
2021/07/03 01:14:41;;;;;;;5.03;4.35;;;17.10;99.90;;;;;;5073642;28;20206;-74
2021/07/03 01:17:09;;;;;;;6.50;4.70;;;17.10;99.90;;;;;;5073270;28;20229;-74
2021/07/03 01:19:37;;;;;;;7.35;4.97;;;17.00;99.90;;;;;;5073342;28;20203;-74
2021/07/03 01:22:07;;;;;;;5.95;4.60;;;17.10;99.90;;;;;;5072939;28;20564;-73
2021/07/03 01:24:34;;;;;;;6.85;4.45;;;17.10;99.90;;;;;;5073364;28;20550;-74
2021/07/03 01:27:02;;;;;;;4.80;4.28;;;17.00;99.90;;;;;;5072887;28;20227;-73
2021/07/03 01:29:29;;;;;;;6.63;4.78;;;17.00;99.90;;;;;;5072883;28;20227;-74
2021/07/03 01:31:57;;;;;;;5.25;3.97;;;16.90;99.90;;;;;;5072960;28;20293;-73
2021/07/03 01:34:26;;;;;;;8.82;5.53;;;16.70;99.90;;;;;;5073042;28;20208;-74
2021/07/03 01:36:53;;;;;;;7.10;3.95;;;16.80;99.90;;;;;;5074206;28;20230;-70
2021/07/03 01:39:22;;;;;;;6.68;4.75;;;16.70;99.90;;;;;;5074735;28;20217;-71
2021/07/03 01:41:49;;;;;;;6.78;4.40;;;16.70;99.90;;;;;;5073799;28;20217;-72
2021/07/03 01:44:23;;;;;;;7.43;4.82;;;16.80;99.90;;;;;;5074325;28;20210;-71
2021/07/03 01:46:51;;;;;;;7.30;5.20;;;16.80;99.90;;;;;;5073863;28;20560;-71
2021/07/03 01:49:18;;;;;;;6.00;4.40;;;16.80;99.90;;;;;;5074157;28;20263;-71
2021/07/03 01:51:45;;;;;;;8.20;4.82;;;16.80;99.90;;;;;;5073464;28;20209;-71
2021/07/03 01:54:12;;;;;;;7.85;4.97;;;16.80;99.90;;;;;;5073681;28;20728;-71
2021/07/03 01:56:41;;;;;;;5.68;4.57;;;16.80;99.90;;;;;;5073895;28;20626;-72
2021/07/03 01:59:08;;;;;;;7.10;4.70;;;16.80;99.90;;;;;;5074162;28;20663;-71
2021/07/03 02:01:35;;;;;;;6.70;4.60;;;16.80;99.90;;;;;;5074028;28;20668;-71
2021/07/03 02:04:03;;;;;;;6.82;4.50;;;16.80;99.90;;;;;;5074283;28;20568;-71
2021/07/03 02:06:30;;;;;;;6.63;5.00;;;16.70;99.90;;;;;;5073374;28;20229;-71
2021/07/03 02:08:57;;;;;;;7.13;4.35;;;16.60;99.90;;;;;;5073993;28;20316;-72
2021/07/03 02:11:23;;;;;;;5.93;5.22;;;16.60;99.90;;;;;;5073706;28;20555;-72
2021/07/03 02:13:52;;;;;;;5.97;5.30;;;16.50;99.90;;;;;;5073745;28;20211;-71
2021/07/03 02:16:19;;;;;;;7.25;4.20;;;16.60;99.90;;;;;;5073897;28;20316;-72
2021/07/03 02:18:45;;;;;;;5.95;4.43;;;16.50;99.90;;;;;;5073736;28;20212;-71
2021/07/03 02:21:12;;;;;;;9.43;5.32;;;16.50;99.90;;;;;;5073432;28;20206;-71
2021/07/03 02:23:39;;;;;;;7.50;5.22;;;16.30;99.90;;;;;;5074007;28;20295;-71
2021/07/03 02:26:06;;;;;;;7.47;5.03;;;16.00;99.90;;;;;;5077811;28;20292;-72
2021/07/03 02:28:33;;;;;;;7.35;4.30;;;16.00;99.90;;;;;;5078051;28;20311;-71
2021/07/03 02:31:01;;;;;;;6.47;4.82;;;16.10;99.90;;;;;;5077412;28;20295;-71
2021/07/03 02:33:28;;;;;;;6.53;5.10;;;16.10;99.90;;;;;;5077995;28;20301;-72
2021/07/03 02:35:55;;;;;;;5.40;3.65;;;16.00;99.90;;;;;;5077269;28;20301;-72
2021/07/03 02:38:22;;;;;;;6.00;4.05;;;16.00;99.90;;;;;;5077440;28;20647;-71
2021/07/03 02:40:49;;;;;;;9.20;3.78;;;16.00;99.90;;;;;;5077182;28;20216;-73
2021/07/03 02:43:16;;;;;;;6.38;4.38;;;16.10;99.90;;;;;;5077717;28;20300;-71
2021/07/03 02:45:42;;;;;;;8.23;5.80;;;16.10;99.90;;;;;;5077813;28;20212;-71
2021/07/03 02:48:11;;;;;;;6.78;4.63;;;16.20;99.90;;;;;;5076869;28;20320;-71
2021/07/03 02:50:37;;;;;;;8.60;5.22;;;16.20;99.90;;;;;;5077003;28;20308;-71
2021/07/03 02:53:04;;;;;;;6.55;4.75;;;16.20;99.90;;;;;;5077337;28;20240;-71
2021/07/03 02:55:31;;;;;;;5.93;4.50;;;16.20;99.90;;;;;;5077502;28;20292;-71
2021/07/03 02:57:58;;;;;;;6.40;4.63;;;16.20;99.90;;;;;;5077583;28;20269;-71
2021/07/03 03:00:25;;;;;;;8.80;4.53;;;16.20;99.90;;;;;;5077102;28;20288;-71
2021/07/03 03:02:52;;;;;;;6.13;4.43;;;16.20;99.90;;;;;;5077445;28;20237;-71
2021/07/03 03:05:20;;;;;;;5.95;3.70;;;16.10;99.90;;;;;;5076837;28;20210;-71
2021/07/03 03:07:47;;;;;;;7.43;4.45;;;16.20;99.90;;;;;;5077056;28;20230;-71
2021/07/03 03:10:16;;;;;;;6.93;4.82;;;16.10;99.90;;;;;;5076784;28;20226;-71
2021/07/03 03:12:43;;;;;;;5.95;4.35;;;16.10;99.90;;;;;;5077157;28;20292;-71
2021/07/03 03:15:12;;;;;;;6.18;4.30;;;16.10;99.90;;;;;;5077133;28;20216;-72
2021/07/03 03:17:39;;;;;;;6.25;4.80;;;16.10;99.90;;;;;;5076985;28;20231;-71
2021/07/03 03:20:08;;;;;;;6.90;4.35;;;16.10;99.90;;;;;;5076624;28;20202;-71
2021/07/03 03:22:36;;;;;;;6.20;4.50;;;16.10;99.90;;;;;;5076894;28;20202;-71
2021/07/03 03:25:05;;;;;;;5.82;3.97;;;16.00;99.90;;;;;;5076950;28;20294;-71
2021/07/03 03:27:32;;;;;;;8.85;4.43;;;15.90;99.90;;;;;;5076371;28;20230;-72
2021/07/03 03:29:59;;;;;;;6.10;4.78;;;15.90;99.90;;;;;;5076225;28;20232;-72
2021/07/03 03:32:26;;;;;;;6.35;4.68;;;15.90;99.90;;;;;;5076383;28;20213;-72
2021/07/03 03:34:52;;;;;;;6.53;4.50;;;16.00;99.90;;;;;;5076639;28;20202;-72
2021/07/03 03:37:19;;;;;;;5.82;4.10;;;16.00;99.90;;;;;;5076568;28;20629;-72
2021/07/03 03:39:47;;;;;;;6.72;4.85;;;16.10;99.90;;;;;;5076972;28;20240;-71
2021/07/03 03:42:14;;;;;;;6.13;4.38;;;16.10;99.90;;;;;;5076139;28;20304;-71
2021/07/03 03:44:41;;;;;;;7.90;4.82;;;16.10;99.90;;;;;;5076536;28;20206;-72
2021/07/03 03:47:08;;;;;;;6.32;4.18;;;16.10;99.90;;;;;;5076372;28;20261;-72
2021/07/03 03:49:35;;;;;;;6.05;3.80;;;16.00;99.90;;;;;;5075954;28;20230;-71
2021/07/03 03:52:01;;;;;;;6.00;4.68;;;16.00;99.90;;;;;;5076241;28;20299;-71
2021/07/03 03:54:28;;;;;;;7.30;4.20;;;16.00;99.90;;;;;;5076028;28;20257;-72
2021/07/03 03:59:41;;;;;;;7.10;4.93;;;16.00;99.90;;;;;;5076035;28;20336;-72
2021/07/03 04:02:08;;;;;;;6.15;4.05;;;16.00;99.90;;;;;;5075832;28;20883;-71
2021/07/03 04:04:35;;;;;;;7.63;4.50;;;15.90;99.90;;;;;;5076146;28;20205;-71
2021/07/03 04:07:01;;;;;;;5.90;4.15;;;15.70;99.90;;;;;;5076159;28;20221;-72
2021/07/03 04:09:28;;;;;;;5.00;3.80;;;15.70;99.90;;;;;;5075723;28;20327;-71
2021/07/03 04:11:57;;;;;;;5.60;3.85;;;15.50;99.90;;;;;;5075445;28;20299;-71
2021/07/03 04:14:24;;;;;;;6.47;5.18;;;15.50;99.90;;;;;;5075899;28;20300;-72
2021/07/03 04:16:50;;;;;;;7.05;4.10;;;15.60;99.90;;;;;;5075865;28;20317;-72
2021/07/03 04:19:17;;;;;;;6.15;4.40;;;15.70;99.90;;;;;;5076214;28;20205;-72
2021/07/03 04:21:44;;;;;;;6.07;4.53;;;15.80;99.90;;;;;;5075058;28;20237;-71
2021/07/03 04:24:11;;;;;;;9.27;4.60;;;15.80;99.90;;;;;;5075717;28;20206;-72
2021/07/03 04:26:38;;;;;;;6.03;4.10;;;15.90;99.90;;;;;;5075044;28;20226;-72
2021/07/03 04:29:06;;;;;;;5.63;4.65;;;15.90;99.90;;;;;;5075720;28;20229;-72
2021/07/03 04:31:33;;;;;;;8.75;4.70;;;16.00;99.90;;;;;;5075668;28;20205;-71
2021/07/03 04:34:00;;;;;;;8.05;5.40;;;16.00;99.90;;;;;;5075651;28;20209;-71
2021/07/03 04:36:27;;;;;;;6.05;4.15;;;16.00;99.90;;;;;;5075137;28;20316;-72
2021/07/03 04:38:54;;;;;;;6.00;4.70;;;15.90;99.90;;;;;;5075256;28;20528;-72
2021/07/03 04:41:20;;;;;;;5.65;3.90;;;15.90;99.90;;;;;;5075018;28;20304;-72
2021/07/03 04:43:47;;;;;;;7.55;4.95;;;15.90;99.90;;;;;;5075362;28;20204;-71
2021/07/03 04:46:15;;;;;;;8.30;4.47;;;15.90;99.90;;;;;;5075130;28;20201;-71
2021/07/03 04:48:42;;;;;;;5.30;4.00;;;15.90;99.90;;;;;;5074944;28;20323;-71
2021/07/03 04:51:09;;;;;;;7.10;4.72;;;15.70;99.90;;;;;;5074549;28;20719;-72
2021/07/03 04:53:36;;;;;;;4.95;4.45;;;15.70;99.90;;;;;;5074957;28;20545;-71
2021/07/03 04:56:03;;;;;;;6.30;4.53;;;15.70;99.90;;;;;;5075013;28;20295;-72
2021/07/03 04:58:30;;;;;;;8.63;4.90;;;15.60;99.90;;;;;;5075116;28;20297;-72
2021/07/03 05:00:57;;;;;;;7.97;5.47;;;15.60;99.90;;;;;;5074570;28;20211;-72
2021/07/03 05:03:25;;;;;;;6.38;4.63;;;15.80;99.90;;;;;;5075063;28;20687;-72
2021/07/03 05:05:51;;;;;;;8.88;4.72;;;15.90;99.90;;;;;;5074663;28;20209;-72
2021/07/03 05:08:18;;;;;;;8.02;4.82;;;16.00;99.90;;;;;;5074769;28;20316;-71
2021/07/03 05:10:48;;;;;;;5.65;4.25;;;16.10;99.90;;;;;;5074234;28;20226;-72
2021/07/03 05:13:15;;;;;;;8.90;5.15;;;16.20;99.90;;;;;;5074860;28;20257;-71
2021/07/03 05:15:42;;;;;;;6.70;3.72;;;16.30;99.90;;;;;;5074852;28;20211;-71
2021/07/03 05:18:08;;;;;;;8.05;4.35;;;16.20;99.90;;;;;;5074439;28;20287;-71
2021/07/03 05:20:37;;;;;;;7.65;5.05;;;16.30;99.90;;;;;;5074276;28;20293;-71
2021/07/03 05:23:04;;;;;;;4.70;3.85;;;16.40;99.90;;;;;;5074480;28;20212;-72
2021/07/03 05:25:31;;;;;;;8.27;4.72;;;16.50;99.90;;;;;;5074495;28;20205;-71
2021/07/03 05:27:57;;;;;;;7.47;5.18;;;16.50;99.90;;;;;;5074113;28;20579;-71
2021/07/03 05:30:24;;;;;;;7.47;4.75;;;16.50;99.90;;;;;;5074133;28;20321;-72
2021/07/03 05:32:51;;;;;;;7.60;5.28;;;16.40;99.90;;;;;;5073818;28;20567;-72
2021/07/03 05:35:18;;;;;;;8.00;5.10;;;16.40;99.90;;;;;;5074034;28;20205;-72
2021/07/03 05:37:46;;;;;;;6.47;5.13;;;16.40;99.90;;;;;;5074408;28;20253;-71
2021/07/03 05:40:16;;;;;;;9.77;5.95;;;16.40;99.90;;;;;;5073939;28;20676;-72
2021/07/03 05:42:43;;;;;;;7.15;4.95;;;16.30;99.90;;;;;;5073610;28;20269;-71
2021/07/03 05:45:13;;;;;;;7.57;4.47;;;16.40;99.90;;;;;;5074366;28;20713;-71
2021/07/03 05:47:40;;;;;;;5.78;5.05;;;16.60;99.90;;;;;;5073745;28;20276;-71
2021/07/03 05:50:08;;;;;;;6.80;4.93;;;16.70;99.90;;;;;;5073794;28;20227;-71
2021/07/03 05:52:35;;;;;;;7.35;4.68;;;16.80;99.90;;;;;;5074007;28;20206;-71
2021/07/03 05:55:04;;;;;;;5.82;4.05;;;16.70;99.90;;;;;;5074201;28;20211;-72
2021/07/03 05:57:31;;;;;;;7.00;5.20;;;16.70;99.90;;;;;;5073631;28;20236;-71
2021/07/03 05:59:57;;;;;;;5.78;4.25;;;16.70;99.90;;;;;;5072618;28;20208;-71
2021/07/03 06:02:24;;;;;;;8.43;4.70;;;16.60;99.90;;;;;;5073875;28;20241;-71
2021/07/03 06:04:51;;;;;;;7.60;5.32;;;16.60;99.90;;;;;;5073783;28;20335;-72
2021/07/03 06:07:18;;;;;;;6.85;4.80;;;16.70;99.90;;;;;;5073445;28;20257;-71
2021/07/03 06:09:45;;;;;;;6.75;4.57;;;16.80;99.90;;;;;;5074237;28;20637;-71
2021/07/03 06:12:13;;;;;;;7.88;4.47;;;16.80;99.90;;;;;;5073901;28;20238;-71
2021/07/03 06:14:39;;;;;;;6.15;4.20;;;16.80;99.90;;;;;;5073520;28;20238;-71
2021/07/03 06:17:07;;;;;;;7.10;5.03;;;16.80;99.90;;;;;;5073857;28;20229;-71
2021/07/03 06:19:34;;;;;;;6.10;4.60;;;16.80;99.90;;;;;;5073804;28;20209;-71
2021/07/03 06:22:01;;;;;;;7.10;5.07;;;16.80;99.90;;;;;;5073237;28;20205;-72
2021/07/03 06:24:28;;;;;;;8.35;4.72;;;16.90;99.90;;;;;;5073967;28;20312;-72
2021/07/03 06:26:54;;;;;;;9.02;5.28;;;17.00;99.90;;;;;;5073422;28;20223;-71
2021/07/03 06:29:23;;;;;;;7.85;4.75;;;17.10;99.90;;;;;;5073532;28;20638;-71
2021/07/03 06:31:49;;;;;;;7.22;4.63;;;17.30;99.90;;;;;;5073330;28;20677;-71
2021/07/03 06:34:16;;;;;;;7.10;5.13;;;17.40;99.90;;;;;;5073742;28;20294;-71
2021/07/03 06:36:43;;;;;;;7.57;5.32;;;17.50;99.90;;;;;;5073387;28;20226;-72
2021/07/03 06:39:10;;;;;;;7.85;4.95;;;17.60;99.90;;;;;;5074090;28;20213;-73
2021/07/03 06:41:37;;;;;;;9.35;5.32;;;17.70;99.90;;;;;;5072883;28;20757;-72
2021/07/03 06:44:04;;;;;;;6.60;4.95;;;17.80;99.90;;;;;;5073488;28;20238;-71
2021/07/03 06:46:32;;;;;;;7.88;5.20;;;17.80;99.90;;;;;;5073467;28;20227;-72
2021/07/03 06:48:59;;;;;;;8.02;5.00;;;17.90;99.90;;;;;;5073206;28;20294;-72
2021/07/03 06:51:26;;;;;;;8.15;5.75;;;18.10;99.90;;;;;;5072781;28;20736;-71
2021/07/03 06:53:53;;;;;;;7.45;5.45;;;18.20;99.90;;;;;;5073139;28;20683;-72
2021/07/03 06:56:20;;;;;;;5.20;4.22;;;18.40;99.90;;;;;;5073179;28;20280;-72
2021/07/03 06:58:47;;;;;;;7.78;5.07;;;18.60;99.90;;;;;;5073504;28;20256;-72
2021/07/03 07:01:14;;;;;;;5.88;4.55;;;18.80;99.90;;;;;;5072738;28;20294;-72
2021/07/03 07:03:42;;;;;;;7.15;5.10;;;18.90;99.90;;;;;;5073505;28;20299;-71
2021/07/03 07:06:09;;;;;;;7.68;5.30;;;19.30;99.90;;;;;;5073503;28;20296;-72
2021/07/03 07:08:36;;;;;;;6.23;4.60;;;19.70;99.90;;;;;;5073134;28;20204;-72
2021/07/03 07:11:03;;;;;;;8.93;5.77;;;20.30;99.90;;;;;;5075087;28;20889;-72
2021/07/03 07:13:30;;;;;;;5.73;4.33;;;20.70;99.90;;;;;;5076769;28;20528;-72
2021/07/03 07:15:57;;;;;;;7.00;4.93;;;20.80;99.90;;;;;;5076870;28;20440;-72
2021/07/03 07:18:24;;;;;;;6.67;4.90;;;20.90;99.90;;;;;;5077355;28;20550;-71
2021/07/03 07:20:52;;;;;;;7.70;5.17;;;21.00;99.90;;;;;;5076610;28;20526;-72
2021/07/03 07:23:19;;;;;;;6.03;4.70;;;21.00;99.90;;;;;;5076472;28;20440;-72
2021/07/03 07:25:50;;;;;;;7.53;4.93;;;21.00;99.90;;;;;;5076376;28;20452;-72
2021/07/03 07:28:17;;;;;;;8.27;5.17;;;21.00;99.90;;;;;;5076979;28;20467;-72
2021/07/03 07:30:43;;;;;;;8.80;4.60;;;20.80;99.90;;;;;;5076268;28;20477;-72
2021/07/03 07:33:10;;;;;;;6.90;5.33;;;20.60;99.90;;;;;;5076802;28;20539;-72
2021/07/03 07:35:37;;;;;;;5.30;4.53;;;20.60;99.90;;;;;;5076123;28;20530;-72
2021/07/03 07:38:05;;;;;;;5.07;4.40;;;20.80;99.90;;;;;;5076512;28;20482;-72
2021/07/03 07:40:32;;;;;;;6.90;4.80;;;21.10;99.90;;;;;;5076088;28;20527;-72
2021/07/03 07:42:59;;;;;;;5.90;4.70;;;21.20;99.90;;;;;;5076353;28;20480;-71
2021/07/03 07:45:26;;;;;;;5.73;4.13;;;21.10;99.90;;;;;;5076562;28;20539;-72
2021/07/03 07:47:53;;;;;;;6.10;4.23;;;21.20;99.90;;;;;;5075903;28;20558;-72
2021/07/03 07:50:19;;;;;;;6.00;4.30;;;21.30;99.90;;;;;;5075987;28;20483;-72
2021/07/03 07:52:46;;;;;;;5.33;3.90;;;21.40;99.90;;;;;;5076204;28;20476;-72
2021/07/03 07:55:15;;;;;;;5.07;4.57;;;21.60;99.90;;;;;;5076205;28;20816;-72
2021/07/03 07:57:41;;;;;;;5.47;4.20;;;22.20;99.90;;;;;;5076145;28;20556;-72
2021/07/03 08:00:09;;;;;;;5.80;4.53;;;22.90;99.90;;;;;;5076036;28;20451;-71
2021/07/03 08:02:36;;;;;;;5.20;4.40;;;23.40;99.90;;;;;;5076328;28;20518;-72
2021/07/03 08:05:03;;;;;;;5.70;4.67;;;23.70;99.90;;;;;;5075937;28;20532;-72
2021/07/03 08:07:31;;;;;;;6.13;5.10;;;24.00;99.90;;;;;;5076059;28;20471;-72
2021/07/03 08:09:58;;;;;;;6.50;4.57;;;24.20;99.40;;;;;;5075614;28;20471;-73
2021/07/03 08:12:26;;;;;;;6.17;4.53;;;24.40;98.80;;;;;;5076081;28;20441;-72
2021/07/03 08:14:53;;;;;;;6.17;4.47;;;24.60;99.00;;;;;;5075893;28;20440;-72
2021/07/03 08:17:19;;;;;;;5.43;4.33;;;25.30;98.70;;;;;;5075349;28;20468;-72
2021/07/03 08:19:46;;;;;;;3.97;3.50;;;25.90;97.80;;;;;;5075484;28;20528;-72
2021/07/03 08:22:13;;;;;;;4.70;4.13;;;26.30;96.10;;;;;;5074637;28;20475;-72
2021/07/03 08:24:40;;;;;;;4.83;3.87;;;26.80;93.10;;;;;;5075763;28;20524;-72
2021/07/03 08:27:07;;;;;;;5.20;4.23;;;27.10;91.40;;;;;;5075363;28;20468;-72
2021/07/03 08:29:35;;;;;;;5.67;4.57;;;27.30;90.10;;;;;;5075727;28;21000;-72
2021/07/03 08:32:02;;;;;;;4.47;4.07;;;27.60;88.80;;;;;;5075276;28;20439;-72
2021/07/03 08:34:29;;;;;;;4.43;4.03;;;27.80;86.00;;;;;;5075397;28;20867;-72
2021/07/03 08:36:55;;;;;;;4.63;3.73;;;28.30;83.70;;;;;;5075082;28;20552;-73
2021/07/03 08:39:22;;;;;;;4.00;3.63;;;28.90;78.20;;;;;;5075368;28;20449;-72
2021/07/03 08:41:49;;;;;;;5.00;4.50;;;29.10;75.90;;;;;;5074814;28;20457;-73
2021/07/03 08:44:16;;;;;;;4.70;4.20;;;29.60;74.10;;;;;;5075412;28;20542;-72
2021/07/03 08:46:46;;;;;;;5.33;4.50;;;30.30;72.50;;;;;;5074835;28;20471;-72
2021/07/03 08:49:13;;;;;;;4.60;4.10;;;30.60;69.00;;;;;;5075097;28;20445;-73
2021/07/03 08:51:42;;;;;;;5.63;3.87;;;30.60;68.30;;;;;;5074699;28;20842;-72
2021/07/03 08:54:08;;;;;;;4.50;3.90;;;31.40;69.50;;;;;;5075183;28;20441;-72
2021/07/03 08:56:35;;;;;;;5.90;4.70;;;31.70;64.00;;;;;;5075004;28;20875;-73
2021/07/03 08:59:02;;;;;;;4.33;3.87;;;31.90;56.40;;;;;;5075238;28;20528;-72
2021/07/03 09:01:29;;;;;;;4.10;3.70;;;32.30;60.40;;;;;;5074688;28;20528;-73
2021/07/03 09:03:58;;;;;;;5.73;5.13;;;33.60;55.10;;;;;;5074701;28;20441;-73
2021/07/03 09:06:31;;;;;;;5.70;4.83;;;34.80;48.70;;;;;;5074861;28;20504;-73
2021/07/03 09:08:58;;;;;;;5.00;4.40;;;35.10;50.50;;;;;;5074991;28;20907;-73
2021/07/03 09:11:25;;;;;;;4.50;4.10;;;35.80;48.20;;;;;;5074053;28;20485;-73
2021/07/03 09:14:00;;;;;;;5.23;4.60;;;36.40;44.40;;;;;;5074584;28;20524;-73
2021/07/03 09:16:31;;;;;;;4.27;3.87;;;36.80;42.20;;;;;;5074349;28;20468;-73
2021/07/03 09:19:00;;;;;;;4.70;4.20;;;37.20;41.00;;;;;;5074657;28;20930;-73
2021/07/03 09:21:27;;;;;;;4.33;3.93;;;38.10;38.60;;;;;;5074066;28;20508;-73
2021/07/03 09:23:54;;;;;;;4.53;4.10;;;37.40;40.10;;;;;;5074478;28;20556;-73
2021/07/03 09:26:21;;;;;;;4.27;3.87;;;36.80;39.20;;;;;;5074315;28;20465;-73
2021/07/03 09:28:49;;;;;;;3.70;3.40;;;37.20;39.00;;;;;;5074579;28;20535;-73
2021/07/03 09:31:18;;;;;;;4.53;3.93;;;37.20;37.80;;;;;;5074289;28;20906;-73
2021/07/03 09:33:48;;;;;;;3.87;3.47;;;37.50;38.90;;;;;;5074376;28;20449;-73
2021/07/03 09:36:25;;;;;;;4.20;3.90;;;37.40;37.70;;;;;;5074441;28;20471;-73
2021/07/03 09:38:55;;;;;;;4.53;4.13;;;37.40;36.50;;;;;;5074026;28;20445;-73
2021/07/03 09:41:24;;;;;;;4.63;4.13;;;37.50;37.70;;;;;;5073638;28;20485;-73
2021/07/03 09:43:59;;;;;;;4.53;4.10;;;37.50;36.40;;;;;;5074325;28;20437;-73
2021/07/03 09:46:27;;;;;;;4.77;4.30;;;37.50;38.00;;;;;;5074242;28;20468;-73
2021/07/03 09:48:57;;;;;;;4.20;3.80;;;37.60;38.40;;;;;;5074748;28;20540;-73
2021/07/03 09:51:30;;;;;;;3.97;3.67;;;37.50;38.60;;;;;;5073509;28;21061;-74
2021/07/03 09:54:00;;;;;;;3.93;3.63;;;38.10;36.70;;;;;;5074342;28;20532;-72
2021/07/03 09:56:27;;;;;;;5.33;4.83;;;39.20;36.20;;;;;;5073947;28;20508;-74
2021/07/03 09:58:54;;;;;;;3.47;3.17;;;39.30;33.70;;;;;;5074167;28;20541;-73
2021/07/03 10:01:21;;;;;;;6.17;5.60;;;39.20;34.30;;;;;;5073361;28;20445;-73
2021/07/03 10:03:48;;;;;;;4.40;4.00;;;39.40;34.20;;;;;;5073606;28;20750;-73
2021/07/03 10:06:21;;;;;;;3.73;3.43;;;39.40;34.30;;;;;;5073733;28;20856;-74
2021/07/03 10:08:55;;;;;;;4.20;3.90;;;40.00;31.80;;;;;;5074233;28;20430;-73
2021/07/03 10:11:25;;;;;;;4.50;4.10;;;39.60;31.40;;;;;;5073290;28;20931;-73
2021/07/03 10:13:56;;;;;;;4.83;3.73;;;38.50;34.00;;;;;;5074035;28;20662;-74
2021/07/03 10:16:23;;;;;;;3.20;2.90;;;38.90;36.50;;;;;;5073551;28;20540;-74
2021/07/03 10:18:50;;;;;;;6.20;4.70;;;38.80;36.40;;;;;;5073933;28;20523;-73
2021/07/03 10:21:22;;;;;;;5.13;4.40;;;38.20;35.60;;;;;;5073379;28;20480;-73
2021/07/03 10:23:51;;;;;;;4.10;3.70;;;37.10;37.10;;;;;;5073965;28;20452;-71
2021/07/03 10:26:18;;;;;;;4.43;4.00;;;36.50;38.40;;;;;;5073986;28;20469;-74
2021/07/03 10:28:52;;;;;;;3.90;3.60;;;36.70;38.50;;;;;;5080291;28;20540;-73
2021/07/03 10:31:19;;;;;;;4.23;3.87;;;36.90;36.90;;;;;;5072280;28;20807;-76
2021/07/03 10:33:48;;;;;;;4.07;3.67;;;36.10;37.00;;;;;;5072316;28;20895;-74
2021/07/03 10:36:26;;;;;;;4.60;3.90;;;36.00;37.00;;;;;;5072476;28;20479;-74
2021/07/03 10:38:55;;;;;;;4.50;3.73;;;35.10;38.80;;;;;;5072169;28;20842;-74
2021/07/03 10:41:24;;;;;;;4.60;4.07;;;35.00;41.10;;;;;;5071915;28;20583;-74
2021/07/03 10:43:52;;;;;;;3.97;3.57;;;34.50;41.40;;;;;;5072253;28;20950;-74
2021/07/03 10:46:28;;;;;;;3.73;3.43;;;34.00;42.30;;;;;;5075428;28;20895;-74
2021/07/03 10:48:56;;;;;;;4.60;4.20;;;33.20;43.60;;;;;;5076016;28;20884;-74
2021/07/03 10:51:30;;;;;;;4.80;3.90;;;32.20;43.30;;;;;;5075874;28;20811;-73
2021/07/03 10:54:08;;;;;;;4.67;3.80;;;31.70;44.00;;;;;;5076336;28;20471;-74
2021/07/03 10:56:44;;;;;;;4.17;3.60;;;30.90;48.10;;;;;;5076272;28;20559;-74
2021/07/03 10:59:12;;;;;;;4.00;3.60;;;30.30;49.40;;;;;;5075965;28;20511;-74
2021/07/03 11:01:39;;;;;;;5.27;4.60;;;30.00;49.00;;;;;;5075473;28;20513;-75
2021/07/03 11:04:18;;;;;;;6.30;4.87;;;29.70;46.50;;;;;;5075829;28;20535;-74
2021/07/03 11:06:48;;;;;;;3.57;3.00;;;29.60;47.40;;;;;;5075815;28;20970;-75
2021/07/03 11:09:21;;;;;;;3.90;3.50;;;29.60;46.30;;;;;;5075731;28;20463;-74
2021/07/03 11:11:48;;;;;;;3.30;3.00;;;29.50;46.60;;;;;;5075810;28;20527;-74
2021/07/03 11:14:18;;;;;;;4.20;3.17;;;29.10;48.00;;;;;;5075816;28;20792;-74
2021/07/03 11:16:50;;;;;;;4.30;3.67;;;29.20;47.30;;;;;;5075774;28;20466;-74
2021/07/03 11:19:25;;;;;;;4.80;3.67;;;28.60;47.80;;;;;;5075411;28;20454;-74
2021/07/03 11:21:53;;;;;;;4.60;3.70;;;28.20;49.00;;;;;;5075368;28;20482;-74
2021/07/03 11:24:21;;;;;;;4.10;3.37;;;28.10;51.50;;;;;;5075652;28;20444;-75
2021/07/03 11:26:48;;;;;;;3.30;3.00;;;28.40;49.70;;;;;;5075155;28;20474;-75
2021/07/03 11:29:25;;;;;;;3.90;3.57;;;28.50;50.60;;;;;;5075523;28;20994;-75
2021/07/03 11:32:05;;;;;;;5.10;3.27;;;28.40;50.40;;;;;;5075547;28;20861;-73
2021/07/03 11:34:32;;;;;;;5.00;3.70;;;28.60;50.20;;;;;;5075550;28;20438;-73
2021/07/03 11:36:59;;;;;;;3.90;3.50;;;28.40;50.50;;;;;;5075091;28;20566;-73
2021/07/03 11:39:27;;;;;;;5.10;3.63;;;28.40;50.90;;;;;;5075167;28;20915;-73
2021/07/03 11:42:03;;;;;;;5.17;4.17;;;28.30;51.10;;;;;;5075011;28;20583;-75
2021/07/03 11:44:30;;;;;;;4.57;3.50;;;28.30;52.40;;;;;;5075405;28;20812;-73
2021/07/03 11:46:57;;;;;;;4.50;3.30;;;28.40;51.30;;;;;;5074924;28;20473;-74
2021/07/03 11:49:24;;;;;;;3.37;3.03;;;28.20;49.70;;;;;;5075064;28;20441;-74
2021/07/03 11:52:03;;;;;;;3.63;3.30;;;27.90;51.10;;;;;;5074791;28;20440;-75
2021/07/03 11:54:31;;;;;;;4.93;3.37;;;27.90;52.70;;;;;;5075009;28;20444;-73
2021/07/03 11:56:59;;;;;;;4.03;2.90;;;28.00;51.60;;;;;;5073697;28;20461;-73
2021/07/03 11:59:28;;;;;;;3.60;3.30;;;28.20;50.90;;;;;;5074869;28;20450;-76
2021/07/03 12:01:55;;;;;;;4.20;3.80;;;28.30;50.20;;;;;;5074065;28;20572;-75
2021/07/03 12:04:22;;;;;;;4.17;3.67;;;28.50;48.90;;;;;;5074568;28;20442;-76
2021/07/03 12:07:00;;;;;;;4.63;3.93;;;28.50;49.00;;;;;;5074821;28;20553;-76
2021/07/03 12:09:35;;;;;;;3.83;3.20;;;28.60;48.70;;;;;;5074772;28;20441;-76
2021/07/03 12:12:03;;;;;;;3.43;3.13;;;28.60;49.40;;;;;;5074795;28;20467;-76
2021/07/03 12:14:30;;;;;;;4.50;3.80;;;28.80;49.30;;;;;;5074448;28;20885;-76
2021/07/03 12:16:58;;;;;;;4.00;3.00;;;28.80;49.50;;;;;;5074417;28;20532;-75
2021/07/03 12:19:25;;;;;;;3.87;3.47;;;28.70;48.10;;;;;;5074546;28;20540;-76
2021/07/03 12:21:52;;;;;;;3.50;3.20;;;28.40;50.90;;;;;;5074109;28;20575;-76
2021/07/03 12:24:27;;;;;;;4.10;3.20;;;28.40;50.60;;;;;;5074265;28;20539;-76
2021/07/03 12:26:56;;;;;;;5.00;3.90;;;28.60;51.00;;;;;;5074376;28;20557;-76
2021/07/03 12:29:31;;;;;;;4.00;3.60;;;28.60;52.00;;;;;;5074379;28;20536;-75
2021/07/03 12:32:08;;;;;;;3.70;3.20;;;28.80;53.10;;;;;;5073913;28;20448;-74
2021/07/03 12:34:38;;;;;;;3.77;3.40;;;28.70;50.40;;;;;;5074237;28;20450;-74
2021/07/03 12:37:09;;;;;;;3.83;3.40;;;28.80;51.10;;;;;;5074388;28;20535;-76
2021/07/03 12:39:38;;;;;;;3.57;3.27;;;28.80;51.10;;;;;;5074271;28;20454;-77
2021/07/03 12:42:08;;;;;;;3.30;3.00;;;28.40;50.70;;;;;;5073751;28;20486;-74
2021/07/03 12:44:36;;;;;;;3.90;3.47;;;28.30;51.30;;;;;;5074170;28;20857;-75
2021/07/03 12:47:05;;;;;;;3.70;3.20;;;27.80;49.40;;;;;;5074594;28;20875;-75
2021/07/03 12:49:34;;;;;;;3.80;3.50;;;27.60;50.70;;;;;;5075186;28;20445;-76
2021/07/03 12:52:01;;;;;;;4.07;3.03;;;27.50;51.40;;;;;;5074373;28;20807;-74
2021/07/03 12:54:28;;;;;;;4.80;2.83;;;27.50;54.00;;;;;;5074643;28;20448;-76